Flight Track Log - Related Links

Times and Time Zones

All times are in EST time to prevent confusion due to time zone crossing. See the FLG4262 flight status page for this flight to view local times or setup timezone preferences in your user account.

Time Position Orientation Groundspeed Altitude Reporting Facility
EST Latitude Longitude Course Direction KTS MPH feet Rate Location/Type
Wed 03:56:46 PM 42.2028 -83.3553 186° South 161 185 1,500  Level Cleveland Center
Wed 03:57:35 PM 42.1625 -83.3608 186° South 185 213 3,600 2,217 Climbing Cleveland Center
Wed 03:58:18 PM 42.1403 -83.3503 161° South 186 214 4,900 2,164 Climbing Cleveland Center
Wed 03:58:36 PM 42.1233 -83.3244 131° Southeast 231 266 5,800 2,226 Climbing Cleveland Center
Wed 03:59:20 PM 42.0975 -83.2792 128° Southeast 230 265 7,200 2,262 Climbing Cleveland Center
Wed 03:59:37 PM 42.0833 -83.2458 120° Southeast 273 314 8,100 2,613 Climbing Cleveland Center
Wed 04:00:22 PM 42.0853 -83.1642 88° East 287 330 9,900 1,850 Climbing Cleveland Center
Wed 04:01:24 PM 42.1269 -83.0594 62° Northeast 323 372 11,400 1,597 Climbing Cleveland Center
Wed 04:02:26 PM 42.1725 -82.9447 62° Northeast 347 399 13,200 1,728 Climbing Cleveland Center
Wed 04:03:29 PM 42.2214 -82.8236 61° Northeast 367 422 15,000 1,776 Climbing Cleveland Center
Wed 04:04:31 PM 42.2797 -82.6742 62° Northeast 378 435 16,900 1,548 Climbing Cleveland Center
Wed 04:05:33 PM 42.2922 -82.5303 83° East 392 451 18,200 1,210 Climbing Cleveland Center
Wed 04:06:35 PM 42.2897 -82.3808 91° East 396 456 19,400 1,161 Climbing Cleveland Center
Wed 04:07:37 PM 42.2864 -82.2283 92° East 405 466 20,600 1,210 Climbing Cleveland Center
Wed 04:08:39 PM 42.2833 -82.0486 91° East 417 480 21,900 1,113 Climbing Cleveland Center
Wed 04:09:41 PM 42.2800 -81.8886 92° East 421 484 22,900 823 Climbing Cleveland Center
Wed 04:10:43 PM 42.2767 -81.7244 92° East 428 493 23,600 677 Climbing Cleveland Center
Wed 04:11:45 PM 42.2725 -81.5575 92° East 438 504 24,300 726 Climbing Cleveland Center
Wed 04:12:47 PM 42.2683 -81.3878 92° East 445 512 25,100 774 Climbing Cleveland Center
Wed 04:13:49 PM 42.2639 -81.2181 92° East 448 516 25,900 629 Climbing Cleveland Center
Wed 04:14:51 PM 42.2589 -81.0472 92° East 451 519 26,400 532 Climbing Cleveland Center
Wed 04:15:53 PM 42.2544 -80.8736 92° East 456 525 27,000 290 Climbing Cleveland Center
Wed 04:16:55 PM 42.2472 -80.6697 93° East 461 531 27,000  Level Cleveland Center
Wed 04:17:58 PM 42.2422 -80.4925 92° East 466 536 27,000  Level Cleveland Center
Wed 04:19:00 PM 42.2361 -80.3161 93° East 466 536 27,000  Level Cleveland Center
Wed 04:20:02 PM 42.2303 -80.1386 92° East 469 540 27,000  Level Cleveland Center
Wed 04:21:04 PM 42.2225 -79.9644 93° East 469 540 27,000  Level Cleveland Center
Wed 04:22:06 PM 42.2164 -79.7914 93° East 467 537 27,000  Level Cleveland Center
Wed 04:23:08 PM 42.2078 -79.5814 93° East 469 540 27,000  Level Cleveland Center
Wed 04:24:10 PM 42.2006 -79.4075 93° East 468 539 27,000  Level Cleveland Center
Wed 04:25:12 PM 42.1928 -79.2319 93° East 470 541 27,000  Level Cleveland Center
Wed 04:26:14 PM 42.1872 -79.0578 92° East 467 537 27,000  Level Cleveland Center
Wed 04:27:16 PM 42.1925 -78.8728 88° East 467 537 27,000  Level Cleveland Center
Wed 04:28:18 PM 42.1956 -78.6986 89° East 467 537 27,000  Level Cleveland Center
Wed 04:29:20 PM 42.1978 -78.5217 89° East 472 543 27,000  Level Cleveland Center
Wed 04:30:23 PM 42.2011 -78.3125 89° East 470 541 27,000  Level Cleveland Center
Wed 04:31:25 PM 42.2036 -78.1378 89° East 469 540 27,000 -581 Level Cleveland Center
Wed 04:32:27 PM 42.2050 -77.9644 89° East 468 539 25,800 -1,452 Descending Cleveland Center
Wed 04:33:29 PM 42.2061 -77.8006 89° East 449 517 24,000 -1,694 Descending Cleveland Center
Wed 04:34:31 PM 42.2072 -77.6428 89° East 429 494 22,300 -1,790 Descending Cleveland Center
Wed 04:35:33 PM 42.2083 -77.4600 89° East 414 476 20,300 -1,790 Descending Cleveland Center
Wed 04:36:35 PM 42.2103 -77.3161 89° East 394 453 18,600 -1,403 Descending Cleveland Center
Wed 04:37:37 PM 42.2094 -77.1736 90° East 386 444 17,400 -1,307 Descending Cleveland Center
Wed 04:38:16 PM 42.2094 -77.0842 90° East 385 443 16,400 -1,879 Descending New York Center
Wed 04:39:16 PM 42.2125 -76.9500 88° East 374 430 14,300 -2,050 Descending New York Center
Wed 04:40:16 PM 42.2108 -76.8211 91° East 362 417 12,300 -2,050 Descending New York Center
Wed 04:41:16 PM 42.2092 -76.6864 91° East 341 392 10,200 -1,650 Descending New York Center
Wed 04:42:16 PM 42.2122 -76.5831 88° East 307 353 9,000 -1,370 Descending New York Center
Wed 04:42:48 PM 42.2189 -76.5372 79° East 291 335 8,100 -1,532 Descending Cleveland Center
Wed 04:43:50 PM 42.2325 -76.4475 78° East 264 304 6,600 -1,500 Descending Cleveland Center
Wed 04:44:52 PM 42.2400 -76.3611 83° East 248 285 5,000 -1,403 Descending Cleveland Center
Wed 04:45:54 PM 42.2503 -76.2664 82° East 248 285 3,700 -958 Descending Cleveland Center
Wed 04:47:16 PM 42.2450 -76.1492 93° East 219 252 2,700 -338 Descending New York Center
Wed 04:48:16 PM 42.2500 -76.0850 84° East 189 217 2,900 50 Climbing New York Center
Wed 04:49:16 PM 42.2544 -76.0322 83° East 157 181 2,800 -300 Descending New York Center
Wed 04:50:16 PM 42.2481 -75.9869 101° East 141 162 2,300 -500 Descending New York Center

Login

Don't have an account? Register now (free) for customized features, flight alerts, and more!